Time;durP1;ratioP1;P1;durP2;ratioP2;P2;SDS_P1;SDS_P2;PMS_P1;PMS_P2;Temp;Humidity;BMP_temperature;BMP_pressure;BME280_temperature;BME280_humidity;BME280_pressure;Samples;Min_cycle;Max_cycle;Signal;HPM_P1;HPM_P2
2022/07/12 00:01:54;;;;;;;3.08;2.05;;;;;;;15.58;87.62;100427.91;5028272;28;20076;-80
2022/07/12 00:04:20;;;;;;;2.30;1.60;;;;;;;15.60;87.04;100421.84;5029643;28;20054;-80
2022/07/12 00:06:45;;;;;;;2.35;1.55;;;;;;;15.49;87.46;100415.91;5011316;28;20033;-86
2022/07/12 00:09:11;;;;;;;2.65;1.70;;;;;;;15.50;90.00;100425.84;5041026;28;20025;-86
2022/07/12 00:11:37;;;;;;;2.05;1.60;;;;;;;15.53;89.43;100422.91;5028182;28;20536;-85
2022/07/12 00:14:03;;;;;;;2.33;1.70;;;;;;;15.51;89.50;100419.81;5007540;28;20036;-85
2022/07/12 00:16:28;;;;;;;2.58;1.90;;;;;;;15.57;88.45;100423.53;5011945;28;20025;-85
2022/07/12 00:18:54;;;;;;;3.03;1.90;;;;;;;15.56;88.29;100422.00;5028289;28;20041;-85
2022/07/12 00:21:20;;;;;;;2.30;1.60;;;;;;;15.49;89.82;100418.69;5011286;28;20029;-85
2022/07/12 00:23:45;;;;;;;3.15;1.50;;;;;;;15.43;90.35;100423.31;5028107;28;20033;-85
2022/07/12 00:26:11;;;;;;;2.50;1.70;;;;;;;15.49;88.86;100425.03;5028905;28;20082;-80
2022/07/12 00:28:36;;;;;;;2.03;1.60;;;;;;;15.41;89.54;100427.34;5029988;28;20041;-80
2022/07/12 00:31:03;;;;;;;2.40;1.60;;;;;;;15.43;89.17;100424.09;5014117;28;20407;-80
2022/07/12 00:33:29;;;;;;;3.70;1.60;;;;;;;15.45;89.50;100427.19;5031054;28;20521;-80
2022/07/12 00:35:54;;;;;;;2.50;1.75;;;;;;;15.46;87.63;100434.34;5014091;28;20461;-80
2022/07/12 00:38:20;;;;;;;2.72;1.48;;;;;;;15.29;89.99;100424.66;5013960;28;20094;-80
2022/07/12 00:40:45;;;;;;;5.00;1.90;;;;;;;15.24;91.00;100428.06;5031470;28;20068;-80
2022/07/12 00:43:11;;;;;;;3.13;1.90;;;;;;;15.12;91.51;100431.75;5030656;28;20029;-80
2022/07/12 00:45:37;;;;;;;4.93;1.90;;;;;;;15.08;92.02;100425.53;5031904;28;20086;-85
2022/07/12 00:48:03;;;;;;;2.47;1.70;;;;;;;14.96;93.95;100423.59;5031927;28;20371;-85
2022/07/12 00:50:29;;;;;;;3.88;1.75;;;;;;;14.92;92.74;100424.50;5021279;28;20022;-85
2022/07/12 00:52:55;;;;;;;3.35;1.70;;;;;;;14.88;95.41;100423.09;5031869;28;20032;-85
2022/07/12 00:55:22;;;;;;;2.30;1.70;;;;;;;14.83;94.90;100427.25;5014795;28;20123;-85
2022/07/12 00:57:48;;;;;;;2.03;1.58;;;;;;;14.73;95.38;100433.22;5013444;28;20040;-85
2022/07/12 01:00:31;;;;;;;3.78;1.70;;;;;;;14.77;94.67;100434.66;5012410;28;20030;-85
2022/07/12 01:05:46;;;;;;;3.38;1.77;;;;;;;14.54;95.96;100420.38;3261865;26;19932;-78
2022/07/12 01:08:12;;;;;;;3.50;1.80;;;;;;;14.54;95.52;100435.13;5028383;28;20045;-79
2022/07/12 01:10:39;;;;;;;3.10;1.90;;;;;;;14.46;96.17;100431.81;5032192;28;20515;-79
2022/07/12 01:13:04;;;;;;;3.78;1.70;;;;;;;14.48;96.94;100428.56;5012550;28;20064;-79
2022/07/12 01:15:30;;;;;;;4.18;1.88;;;;;;;14.34;97.89;100424.25;5032305;28;20026;-79
2022/07/12 01:17:56;;;;;;;2.78;1.65;;;;;;;14.32;97.82;100423.13;5031134;28;20037;-80
2022/07/12 01:20:22;;;;;;;3.88;1.80;;;;;;;14.28;98.14;100430.84;5029755;28;20037;-80
2022/07/12 01:22:57;;;;;;;4.45;2.20;;;;;;;14.16;99.35;100434.47;5029158;28;20087;-80
2022/07/12 01:25:23;;;;;;;3.20;1.80;;;;;;;14.08;100.00;100439.50;5014155;28;20032;-79
2022/07/12 01:27:48;;;;;;;3.72;2.03;;;;;;;14.02;100.00;100446.91;5031525;28;20038;-80
2022/07/12 01:30:14;;;;;;;3.00;2.00;;;;;;;13.98;100.00;100435.88;5014906;28;20083;-79
2022/07/12 01:32:39;;;;;;;6.40;2.20;;;;;;;13.97;100.00;100439.91;5031633;28;20029;-79
2022/07/12 01:35:05;;;;;;;3.78;2.15;;;;;;;14.09;100.00;100435.50;5012998;28;20080;-79
2022/07/12 01:37:36;;;;;;;2.42;1.95;;;;;;;14.15;100.00;100430.13;5005186;28;20049;-80
2022/07/12 01:40:04;;;;;;;3.85;2.10;;;;;;;14.08;100.00;100433.16;5012968;28;20041;-79
2022/07/12 01:42:30;;;;;;;2.58;1.92;;;;;;;13.87;100.00;100424.28;5013285;28;20042;-79
2022/07/12 01:44:56;;;;;;;2.20;1.90;;;;;;;13.91;100.00;100430.53;5030847;28;20030;-79
2022/07/12 01:47:24;;;;;;;3.13;2.20;;;;;;;13.77;100.00;100433.81;5030479;28;20455;-79
2022/07/12 01:49:49;;;;;;;2.80;2.30;;;;;;;13.69;100.00;100420.56;5028079;28;20099;-80
2022/07/12 01:52:15;;;;;;;3.92;2.30;;;;;;;13.53;100.00;100421.47;5013046;28;20496;-79
2022/07/12 01:54:42;;;;;;;2.65;2.17;;;;;;;13.63;100.00;100437.06;5012217;28;20061;-79
2022/07/12 01:57:07;;;;;;;6.07;2.33;;;;;;;13.55;100.00;100428.16;5030704;28;20026;-79
2022/07/12 01:59:33;;;;;;;3.63;2.45;;;;;;;13.49;100.00;100418.03;5009785;28;20036;-80
2022/07/12 02:02:00;;;;;;;3.30;2.28;;;;;;;13.39;100.00;100419.13;5030894;28;20100;-80
2022/07/12 02:04:26;;;;;;;5.70;2.60;;;;;;;13.27;100.00;100414.34;5027340;28;20017;-79
2022/07/12 02:06:51;;;;;;;4.65;2.50;;;;;;;13.19;100.00;100429.72;5030630;28;20087;-80
2022/07/12 02:09:17;;;;;;;3.75;2.58;;;;;;;13.17;100.00;100435.75;5011002;28;20047;-80
2022/07/12 02:11:43;;;;;;;5.72;2.35;;;;;;;13.28;100.00;100424.25;5009828;28;20034;-80
2022/07/12 02:14:10;;;;;;;4.97;2.60;;;;;;;13.38;100.00;100431.53;5012465;28;20167;-80
2022/07/12 02:16:35;;;;;;;4.00;2.55;;;;;;;13.45;100.00;100428.50;5031079;28;20026;-80
2022/07/12 02:19:02;;;;;;;3.35;2.50;;;;;;;13.41;100.00;100425.06;5029247;28;20484;-80
2022/07/12 02:21:27;;;;;;;4.38;2.30;;;;;;;13.46;100.00;100428.06;5003050;28;20572;-78
2022/07/12 02:23:53;;;;;;;3.53;2.40;;;;;;;13.37;100.00;100422.38;5027306;28;20034;-80
2022/07/12 02:26:18;;;;;;;5.15;2.40;;;;;;;13.41;100.00;100414.69;5029029;28;20026;-77
2022/07/12 02:28:44;;;;;;;6.15;2.75;;;;;;;13.43;100.00;100422.59;5029783;28;20586;-78
2022/07/12 02:31:09;;;;;;;6.00;2.60;;;;;;;13.42;100.00;100423.84;5031089;28;20504;-78
2022/07/12 02:33:35;;;;;;;3.85;2.05;;;;;;;13.38;100.00;100425.94;5004804;28;20121;-80
2022/07/12 02:36:01;;;;;;;2.88;2.17;;;;;;;13.39;100.00;100421.91;5011318;28;20030;-80
2022/07/12 02:38:27;;;;;;;3.30;2.03;;;;;;;13.34;100.00;100422.50;5009721;28;20041;-79
2022/07/12 02:40:53;;;;;;;3.10;2.25;;;;;;;13.31;100.00;100410.22;5028454;28;20037;-78
2022/07/12 02:43:30;;;;;;;2.30;1.98;;;;;;;13.36;100.00;100429.16;5012076;28;20485;-78
2022/07/12 02:46:11;;;;;;;4.90;2.35;;;;;;;13.28;100.00;100429.84;5003696;28;20026;-79
2022/07/12 02:48:37;;;;;;;3.40;2.50;;;;;;;13.25;100.00;100427.94;5013115;28;20385;-79
2022/07/12 02:51:04;;;;;;;4.82;2.35;;;;;;;13.23;100.00;100436.75;4996891;28;20025;-79
2022/07/12 02:53:30;;;;;;;2.17;1.90;;;;;;;13.23;100.00;100442.31;5029136;28;20025;-79
2022/07/12 02:55:56;;;;;;;4.63;2.28;;;;;;;13.22;100.00;100434.41;5013026;28;20484;-79
2022/07/12 02:58:21;;;;;;;3.78;2.33;;;;;;;13.31;100.00;100437.28;5030285;28;20037;-79
2022/07/12 03:00:47;;;;;;;2.60;2.10;;;;;;;13.36;100.00;100440.31;4996176;28;20041;-79
2022/07/12 03:03:13;;;;;;;3.53;2.00;;;;;;;13.47;100.00;100448.31;5011982;28;20056;-79
2022/07/12 03:05:39;;;;;;;4.22;1.88;;;;;;;13.53;100.00;100438.19;5013198;28;20417;-79
2022/07/12 03:08:06;;;;;;;2.60;1.95;;;;;;;13.58;100.00;100448.00;5030546;28;20396;-79
2022/07/12 03:10:32;;;;;;;2.85;2.00;;;;;;;13.60;100.00;100445.53;5012349;28;20037;-79
2022/07/12 03:12:58;;;;;;;4.13;2.20;;;;;;;13.51;100.00;100449.78;5012734;28;20037;-79
2022/07/12 03:15:23;;;;;;;3.25;2.00;;;;;;;13.35;100.00;100446.31;4996722;28;20041;-78
2022/07/12 03:17:49;;;;;;;3.55;1.83;;;;;;;13.40;100.00;100448.56;5031038;28;20029;-78
2022/07/12 03:20:14;;;;;;;2.25;1.70;;;;;;;13.47;100.00;100451.13;4996192;28;20069;-79
2022/07/12 03:22:41;;;;;;;3.92;1.90;;;;;;;13.49;100.00;100457.81;5012281;28;20036;-79
2022/07/12 03:25:07;;;;;;;4.32;2.13;;;;;;;13.50;100.00;100455.81;5013029;28;20385;-79
2022/07/12 03:27:34;;;;;;;3.58;2.15;;;;;;;13.49;100.00;100455.03;5030454;28;20029;-79
2022/07/12 03:29:59;;;;;;;3.22;2.17;;;;;;;13.56;100.00;100465.16;5012867;28;20030;-79
2022/07/12 03:32:25;;;;;;;4.07;2.00;;;;;;;13.64;100.00;100462.91;5030380;28;20107;-79
2022/07/12 03:34:50;;;;;;;4.60;2.30;;;;;;;13.60;100.00;100448.31;5029398;28;20108;-78
2022/07/12 03:37:16;;;;;;;3.08;1.85;;;;;;;13.56;100.00;100459.59;5012129;28;20121;-78
2022/07/12 03:39:41;;;;;;;4.22;2.15;;;;;;;13.56;100.00;100454.00;5029223;28;20477;-78
2022/07/12 03:42:07;;;;;;;3.60;2.08;;;;;;;13.63;100.00;100459.34;5012712;28;20056;-78
2022/07/12 03:44:33;;;;;;;4.72;2.10;;;;;;;13.64;100.00;100455.34;5026896;28;20041;-78
2022/07/12 03:46:59;;;;;;;4.05;2.20;;;;;;;13.67;100.00;100462.81;5011383;28;20409;-78
2022/07/12 03:49:25;;;;;;;3.20;2.10;;;;;;;13.68;100.00;100447.66;5007868;28;20026;-77
2022/07/12 03:51:50;;;;;;;2.83;1.90;;;;;;;13.72;100.00;100456.66;5030376;28;20439;-78
2022/07/12 03:54:16;;;;;;;3.10;2.05;;;;;;;13.80;100.00;100454.41;5011978;28;20374;-78
2022/07/12 03:59:25;;;;;;;2.58;2.08;;;;;;;13.90;100.00;100451.28;5029530;28;20128;-78
2022/07/12 04:01:51;;;;;;;4.93;2.28;;;;;;;13.86;100.00;100450.63;5023240;28;20396;-78
2022/07/12 04:04:16;;;;;;;4.43;2.33;;;;;;;13.78;100.00;100449.31;5011253;28;20514;-77
2022/07/12 04:06:42;;;;;;;4.57;2.10;;;;;;;13.71;100.00;100448.78;5031725;28;20612;-78
2022/07/12 04:09:07;;;;;;;4.70;2.30;;;;;;;13.68;100.00;100444.84;5032896;28;20030;-78
2022/07/12 04:11:33;;;;;;;3.50;2.33;;;;;;;13.62;100.00;100449.44;5031278;28;20056;-79
2022/07/12 04:13:59;;;;;;;3.60;2.10;;;;;;;13.56;100.00;100454.00;5015952;28;20028;-79
2022/07/12 04:16:25;;;;;;;3.97;2.50;;;;;;;13.52;100.00;100448.56;5015623;28;20033;-79
2022/07/12 04:18:50;;;;;;;3.20;2.20;;;;;;;13.55;100.00;100452.44;5033639;28;20073;-79
2022/07/12 04:21:16;;;;;;;4.85;2.63;;;;;;;13.63;100.00;100448.19;5014743;28;20018;-79
2022/07/12 04:23:41;;;;;;;5.68;2.53;;;;;;;13.66;100.00;100449.34;4999514;28;20523;-79
2022/07/12 04:26:07;;;;;;;3.65;2.30;;;;;;;13.79;99.81;100452.88;5013113;28;20048;-79
2022/07/12 04:28:32;;;;;;;2.88;2.20;;;;;;;13.88;100.00;100448.16;5033557;28;20452;-79
2022/07/12 04:30:58;;;;;;;2.72;2.03;;;;;;;14.07;100.00;100454.72;5015556;28;20268;-79
2022/07/12 04:33:23;;;;;;;3.45;2.20;;;;;;;14.20;100.00;100441.47;5030247;28;20092;-79
2022/07/12 04:35:49;;;;;;;3.40;2.17;;;;;;;14.29;99.33;100443.56;5012337;28;20022;-79
2022/07/12 04:38:14;;;;;;;4.47;2.10;;;;;;;14.40;98.45;100438.41;5030854;28;20112;-79
2022/07/12 04:40:40;;;;;;;3.55;2.05;;;;;;;14.54;97.37;100443.50;5033617;28;20497;-79
2022/07/12 04:43:06;;;;;;;2.20;1.90;;;;;;;14.62;96.73;100444.78;5015213;28;20025;-79
2022/07/12 04:45:31;;;;;;;3.05;2.05;;;;;;;14.75;95.00;100445.50;5033292;28;20033;-79
2022/07/12 04:47:56;;;;;;;3.17;2.00;;;;;;;14.92;93.70;100449.63;5015632;28;20184;-79
2022/07/12 04:50:22;;;;;;;2.60;1.98;;;;;;;15.11;92.33;100455.34;5014164;28;20077;-78
2022/07/12 04:52:47;;;;;;;2.40;1.92;;;;;;;15.24;91.82;100458.81;5031469;28;20037;-78
2022/07/12 04:55:13;;;;;;;6.63;2.55;;;;;;;15.37;94.76;100454.66;5008691;28;20029;-79
2022/07/12 04:57:39;;;;;;;5.82;2.00;;;;;;;15.41;94.40;100460.13;5031432;28;20056;-80
2022/07/12 05:00:05;;;;;;;5.65;2.25;;;;;;;15.45;94.45;100460.75;4974365;28;20390;-81
2022/07/12 05:02:32;;;;;;;4.95;2.60;;;;;;;15.49;95.44;100472.56;4993753;28;20042;-81
2022/07/12 05:04:57;;;;;;;4.50;2.40;;;;;;;15.53;95.96;100467.66;4993623;28;20066;-80
2022/07/12 05:07:23;;;;;;;4.90;2.50;;;;;;;15.60;95.67;100461.78;5012226;28;20069;-81
2022/07/12 05:09:48;;;;;;;4.20;2.42;;;;;;;15.67;94.74;100471.91;4996721;28;20477;-80
2022/07/12 05:12:14;;;;;;;5.18;2.65;;;;;;;15.75;95.70;100462.75;5012913;28;20128;-81
2022/07/12 05:14:39;;;;;;;5.80;2.17;;;;;;;15.84;95.40;100467.59;5029246;28;20049;-81
2022/07/12 05:17:05;;;;;;;4.10;2.17;;;;;;;15.95;95.21;100469.94;5046910;28;20039;-81
2022/07/12 05:19:30;;;;;;;5.20;2.10;;;;;;;16.10;95.55;100476.50;5014396;28;20037;-81
2022/07/12 05:21:56;;;;;;;4.72;2.15;;;;;;;16.23;95.33;100474.34;4998360;28;20041;-81
2022/07/12 05:24:21;;;;;;;3.97;2.47;;;;;;;16.31;94.99;100473.56;5014700;28;20018;-83
2022/07/12 05:26:48;;;;;;;4.40;2.45;;;;;;;16.41;95.10;100473.56;5032707;28;20120;-81
2022/07/12 05:29:14;;;;;;;3.55;2.17;;;;;;;16.55;94.94;100473.72;5032091;28;20025;-81
2022/07/12 05:31:39;;;;;;;5.38;2.53;;;;;;;16.84;93.86;100470.44;5014526;28;20393;-79
2022/07/12 05:34:05;;;;;;;3.58;2.17;;;;;;;17.13;91.40;100467.13;5009426;28;20076;-79
2022/07/12 05:36:30;;;;;;;2.80;1.88;;;;;;;17.35;88.78;100483.72;5011890;28;20025;-79
2022/07/12 05:38:56;;;;;;;2.80;1.88;;;;;;;17.62;85.10;100476.00;5013256;28;20041;-80
2022/07/12 05:41:22;;;;;;;3.17;1.80;;;;;;;17.62;81.19;100484.41;5011832;28;20304;-80
2022/07/12 05:43:47;;;;;;;3.08;1.80;;;;;;;17.82;81.03;100480.25;4997936;28;20125;-80
2022/07/12 05:46:13;;;;;;;3.45;1.90;;;;;;;18.02;81.43;100475.63;5031248;28;20489;-80
2022/07/12 05:48:38;;;;;;;3.35;2.10;;;;;;;18.19;81.24;100478.78;5030063;28;20037;-80
2022/07/12 05:53:48;;;;;;;4.97;2.17;;;;;;;18.04;80.02;100483.53;5030850;28;20037;-82
2022/07/12 05:56:14;;;;;;;3.40;1.90;;;;;;;18.02;80.48;100484.03;5014343;28;20025;-82
2022/07/12 05:58:39;;;;;;;3.10;2.10;;;;;;;18.07;80.84;100482.59;5031811;28;20057;-82
2022/07/12 06:01:05;;;;;;;3.92;2.20;;;;;;;18.02;82.14;100480.44;5021918;28;20040;-81
2022/07/12 06:03:31;;;;;;;3.88;1.77;;;;;;;17.99;78.71;100476.59;5005005;28;20041;-81
2022/07/12 06:05:56;;;;;;;2.30;1.73;;;;;;;18.02;78.07;100477.66;5004074;28;20083;-81
2022/07/12 06:08:22;;;;;;;2.10;1.70;;;;;;;18.11;79.82;100474.78;5002146;28;20456;-80
2022/07/12 06:10:48;;;;;;;3.10;2.10;;;;;;;18.19;76.71;100473.16;5001712;28;20029;-81
2022/07/12 06:13:13;;;;;;;3.50;2.00;;;;;;;18.26;77.09;100461.56;5031073;28;20033;-82
2022/07/12 06:15:39;;;;;;;3.17;1.85;;;;;;;18.32;79.36;100482.09;5013766;28;20032;-81
2022/07/12 06:18:04;;;;;;;3.17;2.08;;;;;;;18.32;80.80;100482.09;5013739;28;20127;-80
2022/07/12 06:20:30;;;;;;;2.70;1.73;;;;;;;18.42;79.69;100480.78;5013464;28;20124;-81
2022/07/12 06:22:56;;;;;;;6.25;2.13;;;;;;;18.78;77.09;100476.13;5021175;28;20053;-81
2022/07/12 06:25:22;;;;;;;2.95;1.70;;;;;;;19.08;75.83;100469.28;5021252;28;20029;-82
2022/07/12 06:27:48;;;;;;;2.92;1.88;;;;;;;19.16;72.87;100464.03;5002538;28;20041;-82
2022/07/12 06:30:16;;;;;;;4.00;1.70;;;;;;;19.51;70.78;100467.69;4999899;28;20049;-82
2022/07/12 06:32:43;;;;;;;2.55;1.70;;;;;;;19.93;68.52;100470.09;5010638;28;20029;-81
2022/07/12 06:35:09;;;;;;;3.05;1.73;;;;;;;20.18;66.86;100458.13;5029144;28;20045;-82
2022/07/12 06:37:34;;;;;;;2.75;1.60;;;;;;;20.38;65.45;100466.59;5022235;28;20052;-82
2022/07/12 06:40:00;;;;;;;4.25;1.65;;;;;;;20.70;64.13;100459.03;5020475;28;20045;-81
2022/07/12 06:42:25;;;;;;;2.65;1.58;;;;;;;20.78;63.53;100465.00;5016439;28;20049;-81
2022/07/12 06:44:53;;;;;;;2.63;1.70;;;;;;;21.07;63.95;100473.19;5010709;28;20036;-81
2022/07/12 06:47:18;;;;;;;2.85;1.60;;;;;;;21.39;61.46;100457.84;5021546;28;20049;-82
2022/07/12 06:49:44;;;;;;;3.10;1.80;;;;;;;21.43;61.46;100479.44;5029054;28;20492;-81
2022/07/12 06:52:09;;;;;;;2.65;1.67;;;;;;;20.95;61.45;100477.19;5011273;28;20041;-81
2022/07/12 06:54:35;;;;;;;3.42;1.80;;;;;;;21.47;61.04;100480.00;5009799;28;20032;-83
2022/07/12 06:57:00;;;;;;;2.10;1.80;;;;;;;21.83;58.59;100482.03;5029203;28;20401;-82
2022/07/12 06:59:26;;;;;;;2.75;1.80;;;;;;;21.93;59.13;100483.41;5010361;28;20041;-81
2022/07/12 07:01:52;;;;;;;2.67;1.70;;;;;;;21.91;59.49;100479.50;5003965;28;20065;-81
2022/07/12 07:04:18;;;;;;;3.22;1.90;;;;;;;22.21;60.46;100473.00;5006185;28;20038;-82
2022/07/12 07:06:43;;;;;;;2.03;1.60;;;;;;;22.53;55.51;100478.53;5027312;28;20554;-82
2022/07/12 07:09:09;;;;;;;2.22;1.60;;;;;;;22.72;56.33;100477.59;4994407;28;20145;-82
2022/07/12 07:11:35;;;;;;;5.70;2.08;;;;;;;23.10;54.69;100476.09;5010931;28;20033;-81
2022/07/12 07:14:01;;;;;;;1.77;1.60;;;;;;;23.31;53.80;100473.00;4977637;28;20072;-82
2022/07/12 07:16:27;;;;;;;2.33;1.80;;;;;;;23.10;53.16;100473.28;5022709;28;20069;-81
2022/07/12 07:18:52;;;;;;;3.53;1.77;;;;;;;23.42;52.07;100478.66;4985375;28;20071;-82
2022/07/12 07:21:18;;;;;;;4.03;1.73;;;;;;;23.69;52.38;100478.69;5036954;28;20043;-81
2022/07/12 07:23:43;;;;;;;1.85;1.60;;;;;;;23.44;51.81;100481.81;5030095;28;20037;-82
2022/07/12 07:26:09;;;;;;;2.05;1.77;;;;;;;23.47;48.90;100481.53;5030072;28;20045;-81
2022/07/12 07:30:51;;;;;;;3.45;1.67;;;;;;;23.30;46.57;100485.63;5029463;28;20449;-81
2022/07/12 07:31:20;;;;;;;1.92;1.70;;;;;;;23.02;47.64;100494.09;5029900;28;20037;-82
2022/07/12 07:33:47;;;;;;;3.67;1.70;;;;;;;22.37;47.95;100493.38;4995921;28;20036;-81
2022/07/12 07:36:12;;;;;;;3.22;1.98;;;;;;;22.04;49.39;100489.09;5030353;28;20072;-79
2022/07/12 07:38:38;;;;;;;2.58;1.73;;;;;;;21.94;50.36;100487.78;5027062;28;20296;-81
2022/07/12 07:41:04;;;;;;;3.20;1.90;;;;;;;21.94;50.17;100490.59;5012257;28;20038;-82
2022/07/12 07:43:29;;;;;;;2.35;1.90;;;;;;;21.74;50.14;100482.22;5011590;28;20080;-82
2022/07/12 07:45:55;;;;;;;2.33;1.83;;;;;;;21.56;52.01;100483.38;5013548;28;20113;-81
2022/07/12 07:48:20;;;;;;;2.10;1.70;;;;;;;21.59;53.03;100475.97;5014667;28;20099;-81
2022/07/12 07:50:46;;;;;;;3.42;2.00;;;;;;;21.76;52.86;100479.66;5014026;28;20045;-80
2022/07/12 07:53:11;;;;;;;4.32;1.95;;;;;;;21.75;52.09;100490.22;5031650;28;20038;-81
2022/07/12 07:55:37;;;;;;;2.75;1.92;;;;;;;21.73;51.96;100480.69;5030350;28;20128;-81
2022/07/12 07:58:02;;;;;;;3.88;2.00;;;;;;;21.98;51.63;100485.50;5013461;28;20033;-81
2022/07/12 08:00:28;;;;;;;3.20;1.83;;;;;;;22.23;50.80;100487.41;5013103;28;20115;-81
2022/07/12 08:02:55;;;;;;;3.25;1.70;;;;;;;22.32;52.17;100484.34;5032042;28;20570;-81
2022/07/12 08:05:21;;;;;;;3.72;1.88;;;;;;;22.62;51.71;100486.78;5013889;28;20553;-81
2022/07/12 08:07:46;;;;;;;7.07;2.15;;;;;;;22.94;50.64;100488.16;5032938;28;20037;-81
2022/07/12 08:10:12;;;;;;;2.83;1.77;;;;;;;23.28;51.17;100488.22;5015957;28;20191;-81
2022/07/12 08:12:38;;;;;;;3.58;1.60;;;;;;;23.53;51.00;100487.22;5033019;28;20060;-81
2022/07/12 08:15:04;;;;;;;4.13;1.70;;;;;;;23.62;50.48;100484.09;5033741;28;20554;-81
2022/07/12 08:17:29;;;;;;;2.88;1.70;;;;;;;24.15;48.64;100482.97;5033347;28;20440;-82
2022/07/12 08:19:55;;;;;;;2.90;1.70;;;;;;;23.74;48.07;100482.78;5033164;28;20508;-81
2022/07/12 08:22:21;;;;;;;3.97;1.80;;;;;;;23.94;47.10;100484.56;5033578;28;20025;-81
2022/07/12 08:24:46;;;;;;;2.58;1.80;;;;;;;23.52;47.43;100488.47;5033270;28;20029;-82
2022/07/12 08:27:12;;;;;;;3.13;1.58;;;;;;;23.47;47.44;100492.88;5033086;28;20077;-81
2022/07/12 08:29:37;;;;;;;5.95;2.03;;;;;;;23.26;48.86;100494.38;4998838;28;20125;-82
2022/07/12 08:32:03;;;;;;;3.55;2.38;;;;;;;22.87;48.50;100494.34;5033360;28;20033;-82
2022/07/12 08:34:29;;;;;;;3.50;1.80;;;;;;;22.51;49.42;100496.00;5032822;28;20056;-81
2022/07/12 08:36:55;;;;;;;5.00;1.80;;;;;;;22.32;49.06;100497.75;4999262;28;20044;-81
2022/07/12 08:39:21;;;;;;;4.35;1.80;;;;;;;22.30;48.80;100501.06;5015424;28;20041;-81
2022/07/12 08:41:46;;;;;;;2.75;1.65;;;;;;;22.31;48.43;100496.97;5032761;28;20021;-81
2022/07/12 08:44:12;;;;;;;2.33;1.92;;;;;;;22.28;48.39;100497.97;5033263;28;20034;-81
2022/07/12 08:46:37;;;;;;;2.03;1.70;;;;;;;22.21;48.99;100504.09;5032905;28;20032;-81
2022/07/12 08:49:09;;;;;;;2.47;1.80;;;;;;;22.03;50.18;100501.69;5032746;28;20550;-80
2022/07/12 08:51:35;;;;;;;4.07;2.00;;;;;;;21.95;50.52;100500.63;5032773;28;20048;-81
2022/07/12 08:54:12;;;;;;;4.78;2.00;;;;;;;22.05;51.72;100495.53;5015050;28;20037;-82
2022/07/12 08:56:42;;;;;;;3.15;1.80;;;;;;;21.85;53.66;100504.88;5014613;28;20057;-82
2022/07/12 08:59:15;;;;;;;2.80;1.98;;;;;;;21.65;54.24;100499.34;5032574;28;20091;-81
2022/07/12 09:01:52;;;;;;;3.75;2.10;;;;;;;21.63;55.11;100507.56;5015106;28;20033;-81
2022/07/12 09:04:22;;;;;;;1.90;1.70;;;;;;;21.78;56.10;100496.88;4998798;28;20091;-81
2022/07/12 09:06:48;;;;;;;6.72;2.10;;;;;;;21.26;57.38;100504.69;5014609;28;20493;-81
2022/07/12 09:09:31;;;;;;;4.45;2.10;;;;;;;21.15;58.33;100511.00;5032400;28;20041;-81
2022/07/12 09:11:57;;;;;;;4.05;2.22;;;;;;;21.34;58.36;100517.88;5014981;28;20473;-81
2022/07/12 09:14:22;;;;;;;2.53;1.90;;;;;;;21.39;58.77;100517.13;5032238;28;20057;-81
2022/07/12 09:17:10;;;;;;;1.92;1.70;;;;;;;20.92;60.58;100523.31;5015015;28;20040;-81
2022/07/12 09:19:36;;;;;;;3.72;1.95;;;;;;;20.98;60.29;100524.16;5031964;28;20029;-82
2022/07/12 09:22:03;;;;;;;3.22;2.20;;;;;;;20.95;60.95;100516.66;5014051;28;20115;-81
2022/07/12 09:24:29;;;;;;;4.72;2.10;;;;;;;20.67;60.42;100522.00;5014031;28;20440;-81
2022/07/12 09:27:01;;;;;;;2.33;1.73;;;;;;;20.63;60.48;100517.84;4998495;28;20041;-81
2022/07/12 09:29:26;;;;;;;4.20;2.00;;;;;;;20.52;60.43;100526.19;4997594;28;20044;-81
2022/07/12 09:37:21;;;;;;;2.53;1.90;;;;;;;20.44;60.54;100526.63;5017033;28;20037;-81
2022/07/12 09:39:51;;;;;;;3.65;2.00;;;;;;;20.57;59.89;100533.94;5031712;28;20033;-80
2022/07/12 09:42:18;;;;;;;3.30;1.95;;;;;;;20.35;59.85;100529.56;5014231;28;20504;-79
2022/07/12 09:44:43;;;;;;;4.32;2.20;;;;;;;20.62;59.51;100524.78;5031120;28;20056;-81
2022/07/12 09:47:15;;;;;;;2.10;1.90;;;;;;;20.51;60.21;100530.25;5014276;28;20045;-80
2022/07/12 09:49:42;;;;;;;3.22;2.05;;;;;;;20.58;60.43;100530.63;5031621;28;20102;-80
2022/07/12 09:52:22;;;;;;;6.22;2.05;;;;;;;20.84;59.98;100531.44;5031694;28;20465;-81
2022/07/12 09:54:52;;;;;;;2.90;1.70;;;;;;;20.89;59.88;100527.13;5013514;28;20037;-80
2022/07/12 09:57:28;;;;;;;3.22;1.80;;;;;;;21.00;58.89;100521.59;4997823;28;20397;-80
2022/07/12 09:59:53;;;;;;;3.55;1.85;;;;;;;21.08;59.16;100534.00;5031440;28;20467;-81
2022/07/12 10:02:21;;;;;;;2.03;1.75;;;;;;;21.01;59.22;100523.16;4997181;28;20026;-80
2022/07/12 10:04:47;;;;;;;2.63;1.88;;;;;;;21.10;58.98;100525.81;5013374;28;20404;-81
2022/07/12 10:07:15;;;;;;;4.22;1.95;;;;;;;21.25;59.04;100515.22;5013833;28;20041;-81
2022/07/12 10:09:44;;;;;;;2.65;1.90;;;;;;;21.33;57.56;100518.34;5013090;28;20120;-81
2022/07/12 10:12:10;;;;;;;3.58;1.80;;;;;;;21.39;59.16;100517.13;4980038;28;20034;-82
2022/07/12 10:14:37;;;;;;;2.60;1.95;;;;;;;21.73;56.76;100512.50;4993370;28;20403;-79
2022/07/12 10:17:03;;;;;;;3.28;1.42;;;;;;;;;;4994411;28;20042;-81
2022/07/12 10:19:35;;;;;;;4.32;1.90;;;;;;;22.22;55.36;100514.13;5019375;28;20507;-81
2022/07/12 10:22:02;;;;;;;3.92;1.80;;;;;;;22.50;52.64;100510.63;5031287;28;20033;-81
2022/07/12 10:24:33;;;;;;;4.82;1.70;;;;;;;22.70;51.67;100513.31;5030905;28;20041;-81
2022/07/12 10:26:59;;;;;;;2.42;1.73;;;;;;;22.88;51.21;100510.03;5031542;28;20044;-81
2022/07/12 10:29:25;;;;;;;1.83;1.60;;;;;;;23.01;50.16;100512.38;5012937;28;20025;-81
2022/07/12 10:31:51;;;;;;;3.63;1.70;;;;;;;23.49;50.89;100512.94;5031060;28;20044;-81
2022/07/12 10:34:24;;;;;;;3.15;1.60;;;;;;;23.58;48.60;100497.72;5013165;28;20041;-81
2022/07/12 10:36:56;;;;;;;1.40;1.30;;;;;;;23.94;46.33;100498.72;5009771;28;20033;-81
2022/07/12 10:39:28;;;;;;;6.20;1.77;;;;;;;24.24;45.18;100487.56;5019379;28;20037;-81
2022/07/12 10:42:05;;;;;;;2.45;1.48;;;;;;;24.00;45.35;100500.25;5018840;28;20026;-80
2022/07/12 10:44:35;;;;;;;2.17;1.55;;;;;;;24.05;45.67;100490.97;5032995;28;20065;-80
2022/07/12 10:47:02;;;;;;;2.72;1.67;;;;;;;24.20;46.92;100489.91;5017908;28;20037;-81
2022/07/12 10:49:29;;;;;;;2.45;1.40;;;;;;;23.78;46.08;100491.03;5005235;28;20485;-81
2022/07/12 10:52:10;;;;;;;2.00;1.30;;;;;;;23.24;48.93;100497.72;5013070;28;20036;-80
2022/07/12 10:55:02;;;;;;;4.15;2.60;;;;;;;23.81;45.92;100490.78;5030470;28;20036;-80
2022/07/12 10:57:38;;;;;;;1.60;1.50;;;;;;;23.97;46.19;100484.28;4975728;28;20071;-80
2022/07/12 11:00:04;;;;;;;2.80;1.23;;;;;;;24.01;47.80;100484.81;5011644;28;20049;-80
2022/07/12 11:02:31;;;;;;;1.77;1.40;;;;;;;24.39;46.12;100480.28;5010743;28;20104;-80
2022/07/12 11:04:57;;;;;;;5.50;1.50;;;;;;;24.46;46.96;100467.66;5010197;28;20429;-80
2022/07/12 11:07:23;;;;;;;2.45;1.52;;;;;;;24.62;46.15;100469.63;5028677;28;20037;-81
2022/07/12 11:09:53;;;;;;;2.00;0.95;;;;;;;25.13;43.76;100467.22;5011012;28;20570;-79
2022/07/12 11:12:18;;;;;;;1.45;1.20;;;;;;;25.23;42.46;100483.44;5011611;28;20073;-80
2022/07/12 11:14:45;;;;;;;2.38;1.20;;;;;;;24.84;42.58;100482.88;5009615;28;20703;-79
2022/07/12 11:17:11;;;;;;;1.30;1.20;;;;;;;24.56;43.21;100483.81;5012162;28;20065;-81
2022/07/12 11:19:37;;;;;;;2.85;1.17;;;;;;;24.32;41.60;100468.72;5011876;28;20056;-79
2022/07/12 11:22:02;;;;;;;2.67;1.60;;;;;;;24.39;42.92;100463.28;4996161;28;20550;-80
2022/07/12 11:24:30;;;;;;;2.00;1.38;;;;;;;24.37;44.05;100470.78;5011895;28;20056;-80
2022/07/12 11:26:56;;;;;;;3.05;1.55;;;;;;;24.76;43.26;100467.72;5012692;28;20489;-80
2022/07/12 11:29:22;;;;;;;1.40;1.30;;;;;;;25.25;42.26;100463.78;4996337;28;20041;-80
2022/07/12 11:31:48;;;;;;;2.40;1.40;;;;;;;25.13;42.25;100461.56;5012103;28;20136;-80
2022/07/12 11:34:25;;;;;;;1.35;1.20;;;;;;;25.55;40.25;100463.81;5012020;28;20397;-80
2022/07/12 11:36:55;;;;;;;3.08;1.60;;;;;;;25.44;39.15;100469.53;5029799;28;20037;-80